createdAt,value
2018-08-13T00:00:55.115Z,7.07
2018-08-13T00:03:23.871Z,7.87
2018-08-13T00:05:53.934Z,6.80
2018-08-13T00:08:22.707Z,6.30
2018-08-13T00:10:52.057Z,6.90
2018-08-13T00:13:20.846Z,6.30
2018-08-13T00:15:49.701Z,6.03
2018-08-13T00:18:18.449Z,6.43
2018-08-13T00:20:47.177Z,7.00
2018-08-13T00:23:15.964Z,5.40
2018-08-13T00:25:44.710Z,5.80
2018-08-13T00:28:13.385Z,5.70
2018-08-13T00:30:42.051Z,5.13
2018-08-13T00:33:11.641Z,5.00
2018-08-13T00:35:40.967Z,5.10
2018-08-13T00:38:09.664Z,4.70
2018-08-13T00:40:38.352Z,3.80
2018-08-13T00:43:07.219Z,4.13
2018-08-13T00:45:35.961Z,4.40
2018-08-13T00:48:05.308Z,4.87
2018-08-13T00:50:33.981Z,4.77
2018-08-13T00:53:02.681Z,4.10
2018-08-13T00:55:31.424Z,3.20
2018-08-13T00:58:00.111Z,3.30
2018-08-13T01:00:28.776Z,3.83
2018-08-13T01:02:57.437Z,3.73
2018-08-13T01:05:26.170Z,3.97
2018-08-13T01:07:54.877Z,3.60
2018-08-13T01:10:23.545Z,3.70
2018-08-13T01:12:53.179Z,3.47
2018-08-13T01:15:21.835Z,3.80
2018-08-13T01:17:51.715Z,3.60
2018-08-13T01:20:21.594Z,3.83
2018-08-13T01:22:50.379Z,3.73
2018-08-13T01:25:20.437Z,3.80
2018-08-13T01:27:49.165Z,4.40
2018-08-13T01:30:18.971Z,3.60
2018-08-13T01:32:47.672Z,4.23
2018-08-13T01:35:16.344Z,3.77
2018-08-13T01:37:45.057Z,3.40
2018-08-13T01:40:13.826Z,3.80
2018-08-13T01:42:42.576Z,2.93
2018-08-13T01:45:12.472Z,3.13
2018-08-13T01:47:41.737Z,3.27
2018-08-13T01:50:11.715Z,3.60
2018-08-13T01:52:42.299Z,3.03
2018-08-13T01:55:11.431Z,3.37
2018-08-13T01:57:40.137Z,3.13
2018-08-13T02:00:13.704Z,3.20
2018-08-13T02:02:42.403Z,3.60
2018-08-13T02:05:11.100Z,3.40
2018-08-13T02:07:39.811Z,3.17
2018-08-13T02:10:11.216Z,3.37
2018-08-13T02:12:40.380Z,3.40
2018-08-13T02:15:09.184Z,3.57
2018-08-13T02:17:38.013Z,3.03
2018-08-13T02:20:08.028Z,3.57
2018-08-13T02:22:38.024Z,3.40
2018-08-13T02:25:07.246Z,3.10
2018-08-13T02:27:35.965Z,3.60
2018-08-13T02:30:07.465Z,3.50
2018-08-13T02:32:36.174Z,3.63
2018-08-13T02:35:06.014Z,3.20
2018-08-13T02:37:34.753Z,3.07
2018-08-13T02:40:03.725Z,3.40
2018-08-13T02:42:32.427Z,2.77
2018-08-13T02:45:01.256Z,3.60
2018-08-13T02:47:30.019Z,4.83
2018-08-13T02:49:58.697Z,4.10
2018-08-13T02:52:27.449Z,3.20
2018-08-13T02:54:56.356Z,3.40
2018-08-13T02:57:25.113Z,3.77
2018-08-13T02:59:53.906Z,3.73
2018-08-13T03:02:22.584Z,3.37
2018-08-13T03:04:52.296Z,3.80
2018-08-13T03:07:21.020Z,4.30
2018-08-13T03:09:49.824Z,3.47
2018-08-13T03:12:18.610Z,4.10
2018-08-13T03:14:47.249Z,3.97
2018-08-13T03:17:22.771Z,3.90
2018-08-13T03:19:51.486Z,3.63
2018-08-13T03:22:20.378Z,4.07
2018-08-13T03:24:49.128Z,3.73
2018-08-13T03:27:17.845Z,4.20
2018-08-13T03:29:46.807Z,4.13
2018-08-13T03:32:15.596Z,4.20
2018-08-13T03:34:44.517Z,3.73
2018-08-13T03:37:13.294Z,4.30
2018-08-13T03:39:42.001Z,3.60
2018-08-13T03:42:12.025Z,3.70
2018-08-13T03:44:40.855Z,3.43
2018-08-13T03:47:10.005Z,3.80
2018-08-13T03:49:38.632Z,3.70
2018-08-13T03:52:07.604Z,4.40
2018-08-13T03:54:36.299Z,4.13
2018-08-13T03:57:05.324Z,4.17
2018-08-13T03:59:34.300Z,4.30
2018-08-13T04:02:03.008Z,4.30
2018-08-13T04:04:31.700Z,4.20
2018-08-13T04:07:00.654Z,4.93
2018-08-13T04:09:30.227Z,4.47
2018-08-13T04:11:59.009Z,4.60
2018-08-13T04:14:28.722Z,4.60
2018-08-13T04:17:01.097Z,3.73
2018-08-13T04:19:31.139Z,4.53
2018-08-13T04:22:00.515Z,4.50
2018-08-13T04:24:29.329Z,5.30
2018-08-13T04:26:58.634Z,4.30
2018-08-13T04:29:27.964Z,4.60
2018-08-13T04:31:56.860Z,5.03
2018-08-13T04:34:25.716Z,5.00
2018-08-13T04:36:55.400Z,4.30
2018-08-13T04:39:25.336Z,5.10
2018-08-13T04:41:54.825Z,5.47
2018-08-13T04:44:24.556Z,4.80
2018-08-13T04:46:54.724Z,4.60
2018-08-13T04:49:23.910Z,5.10
2018-08-13T04:51:53.310Z,5.53
2018-08-13T04:54:22.146Z,5.10
2018-08-13T04:56:51.024Z,3.83
2018-08-13T04:59:20.567Z,4.97
2018-08-13T05:01:49.798Z,4.80
2018-08-13T05:04:19.187Z,4.73
2018-08-13T05:06:47.934Z,5.13
2018-08-13T05:09:18.849Z,4.40
2018-08-13T05:11:48.808Z,4.37
2018-08-13T05:14:17.636Z,4.30
2018-08-13T05:16:46.522Z,4.07
2018-08-13T05:19:15.211Z,4.90
2018-08-13T05:21:43.916Z,5.10
2018-08-13T05:24:12.630Z,4.20
2018-08-13T05:26:41.889Z,5.13
2018-08-13T05:29:10.672Z,5.10
2018-08-13T05:31:39.406Z,4.30
2018-08-13T05:34:08.433Z,4.20
2018-08-13T05:36:37.191Z,4.60
2018-08-13T05:39:09.281Z,4.80
2018-08-13T05:41:38.099Z,4.30
2018-08-13T05:44:07.072Z,4.23
2018-08-13T05:46:36.124Z,4.00
2018-08-13T05:49:05.016Z,4.40
2018-08-13T05:51:33.886Z,4.13
2018-08-13T05:54:02.552Z,4.43
2018-08-13T05:56:31.289Z,4.03
2018-08-13T05:58:59.993Z,4.10
2018-08-13T06:01:28.803Z,4.50
2018-08-13T06:03:57.816Z,4.37
2018-08-13T06:06:26.479Z,3.77
2018-08-13T06:08:55.190Z,4.20
2018-08-13T06:11:23.918Z,3.63
2018-08-13T06:13:52.680Z,4.40
2018-08-13T06:16:21.384Z,4.03
2018-08-13T06:18:50.143Z,4.00
2018-08-13T06:21:18.862Z,4.13
2018-08-13T06:23:47.590Z,3.90
2018-08-13T06:26:16.339Z,4.10
2018-08-13T06:28:45.040Z,3.90
2018-08-13T06:31:14.640Z,3.30
2018-08-13T06:33:43.352Z,3.73
2018-08-13T06:36:12.173Z,3.40
2018-08-13T06:38:40.893Z,3.80
2018-08-13T06:41:09.638Z,3.57
2018-08-13T06:43:38.367Z,3.33
2018-08-13T06:46:07.221Z,3.43
2018-08-13T06:48:36.164Z,3.50
2018-08-13T06:51:04.930Z,3.50
2018-08-13T06:53:34.684Z,3.30
2018-08-13T06:56:03.453Z,3.53
2018-08-13T06:58:32.172Z,3.30
2018-08-13T07:01:00.824Z,3.37
2018-08-13T07:03:29.532Z,3.13
2018-08-13T07:05:58.282Z,2.80
2018-08-13T07:08:27.024Z,2.90
2018-08-13T07:10:55.720Z,2.90
2018-08-13T07:13:25.517Z,5.00
2018-08-13T07:15:54.258Z,4.47
2018-08-13T07:18:22.982Z,4.80
2018-08-13T07:20:51.754Z,3.20
2018-08-13T07:23:20.520Z,2.80
2018-08-13T07:25:49.248Z,2.73
2018-08-13T07:28:18.013Z,3.27
2018-08-13T07:30:46.699Z,3.37
2018-08-13T07:33:15.389Z,2.93
2018-08-13T07:35:44.166Z,3.80
2018-08-13T07:38:12.966Z,3.07
2018-08-13T07:40:41.673Z,2.97
2018-08-13T07:43:10.339Z,2.80
2018-08-13T07:45:39.315Z,2.87
2018-08-13T07:48:07.921Z,3.80
2018-08-13T07:50:36.673Z,2.60
2018-08-13T07:53:05.518Z,3.00
2018-08-13T07:55:34.238Z,2.87
2018-08-13T07:58:02.948Z,2.87
2018-08-13T08:00:31.746Z,2.73
2018-08-13T08:03:00.458Z,3.03
2018-08-13T08:05:29.174Z,2.87
2018-08-13T08:07:57.896Z,2.47
2018-08-13T08:10:26.588Z,2.67
2018-08-13T08:12:55.379Z,3.13
2018-08-13T08:15:24.082Z,2.63
2018-08-13T08:17:52.772Z,2.20
2018-08-13T08:20:22.000Z,2.87
2018-08-13T08:22:50.689Z,3.33
2018-08-13T08:25:20.804Z,2.90
2018-08-13T08:27:49.526Z,3.13
2018-08-13T08:30:18.286Z,3.30
2018-08-13T08:32:47.040Z,2.43
2018-08-13T08:35:16.865Z,2.63
2018-08-13T08:37:45.618Z,2.60
2018-08-13T08:40:17.532Z,2.60
2018-08-13T08:42:46.386Z,2.60
2018-08-13T08:45:22.018Z,2.80
2018-08-13T08:47:51.750Z,2.67
2018-08-13T08:50:21.194Z,2.17
2018-08-13T08:52:50.021Z,2.63
2018-08-13T08:55:19.465Z,2.67
2018-08-13T08:57:49.490Z,2.20
2018-08-13T09:00:21.345Z,3.23
2018-08-13T09:02:50.118Z,2.37
2018-08-13T09:05:19.051Z,2.53
2018-08-13T09:07:48.033Z,2.23
2018-08-13T09:10:16.780Z,2.37
2018-08-13T09:12:45.492Z,2.30
2018-08-13T09:15:15.878Z,3.10
2018-08-13T09:17:57.156Z,2.30
2018-08-13T09:20:37.892Z,2.33
2018-08-13T09:23:18.033Z,2.63
2018-08-13T09:25:57.999Z,1.83
2018-08-13T09:28:38.118Z,2.00
2018-08-13T09:31:18.708Z,1.93
2018-08-13T09:33:58.899Z,2.23
2018-08-13T09:36:27.990Z,2.27
2018-08-13T09:38:56.693Z,2.50
2018-08-13T09:41:25.504Z,1.90
2018-08-13T09:43:54.274Z,2.10
2018-08-13T09:46:22.995Z,3.20
2018-08-13T09:48:51.900Z,2.20
2018-08-13T09:51:20.616Z,2.00
2018-08-13T09:53:49.396Z,1.80
2018-08-13T09:56:18.271Z,2.30
2018-08-13T09:58:46.975Z,2.03
2018-08-13T10:01:15.741Z,1.50
2018-08-13T10:03:44.509Z,1.80
2018-08-13T10:06:13.385Z,1.87
2018-08-13T10:08:42.224Z,1.90
2018-08-13T10:11:11.208Z,2.07
2018-08-13T10:13:39.917Z,1.67
2018-08-13T10:16:08.790Z,1.80
2018-08-13T10:18:37.629Z,1.93
2018-08-13T10:21:06.480Z,3.07
2018-08-13T10:23:35.269Z,2.10
2018-08-13T10:26:04.031Z,2.07
2018-08-13T10:28:33.789Z,2.10
2018-08-13T10:31:02.488Z,2.10
2018-08-13T10:33:31.190Z,1.97
2018-08-13T10:35:59.939Z,1.70
2018-08-13T10:38:28.772Z,1.63
2018-08-13T10:40:57.665Z,1.83
2018-08-13T10:43:26.359Z,1.90
2018-08-13T10:45:55.503Z,2.50
2018-08-13T10:48:24.385Z,2.03
2018-08-13T10:50:53.183Z,1.93
2018-08-13T10:53:21.959Z,2.10
2018-08-13T10:55:50.644Z,1.60
2018-08-13T10:58:19.336Z,1.87
2018-08-13T11:00:48.191Z,1.70
2018-08-13T11:03:16.982Z,2.00
2018-08-13T11:05:46.193Z,1.70
2018-08-13T11:08:15.507Z,1.80
2018-08-13T11:10:44.265Z,2.17
2018-08-13T11:13:12.916Z,1.90
2018-08-13T11:15:41.641Z,2.00
2018-08-13T11:18:10.515Z,1.70
2018-08-13T11:20:39.200Z,1.60
2018-08-13T11:23:07.898Z,1.90
2018-08-13T11:25:36.725Z,2.10
2018-08-13T11:28:05.781Z,2.07
2018-08-13T11:30:34.544Z,2.10
2018-08-13T11:33:03.287Z,2.03
2018-08-13T11:35:32.150Z,2.07
2018-08-13T11:38:00.905Z,1.70
2018-08-13T11:40:29.734Z,2.33
2018-08-13T11:42:58.447Z,2.27
2018-08-13T11:45:27.191Z,2.40
2018-08-13T11:47:55.926Z,2.97
2018-08-13T11:50:24.681Z,2.00
2018-08-13T11:52:53.331Z,2.37
2018-08-13T11:55:22.118Z,1.87
2018-08-13T11:57:51.268Z,2.67
2018-08-13T12:00:20.017Z,2.40
2018-08-13T12:02:48.729Z,2.20
2018-08-13T12:05:17.496Z,2.20
2018-08-13T12:07:46.524Z,2.07
2018-08-13T12:10:15.898Z,1.97
2018-08-13T12:12:44.888Z,1.90
2018-08-13T12:15:14.781Z,2.20
2018-08-13T12:17:44.236Z,1.60
2018-08-13T12:20:16.108Z,1.90
2018-08-13T12:22:45.412Z,2.00
2018-08-13T12:25:18.199Z,1.90
2018-08-13T12:27:46.989Z,1.70
2018-08-13T12:30:16.540Z,1.90
2018-08-13T12:32:45.316Z,2.80
2018-08-13T12:35:14.224Z,1.97
2018-08-13T12:37:42.969Z,2.50
2018-08-13T12:40:11.833Z,1.90
2018-08-13T12:42:40.673Z,2.00
2018-08-13T12:45:12.220Z,1.90
2018-08-13T12:47:41.186Z,2.00
2018-08-13T12:50:12.213Z,1.70
2018-08-13T12:52:41.440Z,2.30
2018-08-13T12:55:10.861Z,2.10
2018-08-13T12:57:39.662Z,1.80
2018-08-13T13:00:12.226Z,1.67
2018-08-13T13:02:41.372Z,1.70
2018-08-13T13:05:11.550Z,1.87
2018-08-13T13:07:40.292Z,2.20
2018-08-13T13:10:11.451Z,1.73
2018-08-13T13:12:40.732Z,2.10
2018-08-13T13:15:11.159Z,1.93
2018-08-13T13:17:40.153Z,1.97
2018-08-13T13:20:10.984Z,1.70
2018-08-13T13:22:39.815Z,1.87
2018-08-13T13:25:08.522Z,1.80
2018-08-13T13:27:37.773Z,1.93
2018-08-13T13:30:08.664Z,2.00
2018-08-13T13:32:37.337Z,1.80
2018-08-13T13:35:07.005Z,2.70
2018-08-13T13:37:36.361Z,2.40
2018-08-13T13:40:07.216Z,2.00
2018-08-13T13:42:36.119Z,2.80
2018-08-13T13:45:05.448Z,4.60
2018-08-13T13:47:34.238Z,2.07
2018-08-13T13:50:03.030Z,2.30
2018-08-13T13:52:31.738Z,3.03
2018-08-13T13:55:00.485Z,2.00
2018-08-13T13:57:29.165Z,2.07
2018-08-13T13:59:57.933Z,1.73
2018-08-13T14:02:26.856Z,1.40
2018-08-13T14:04:55.541Z,1.67
2018-08-13T14:07:24.239Z,1.70
2018-08-13T14:09:52.928Z,1.67
2018-08-13T14:12:21.648Z,1.80
2018-08-13T14:14:50.318Z,1.93
2018-08-13T14:17:19.441Z,1.63
2018-08-13T14:19:48.055Z,3.10
2018-08-13T14:22:16.752Z,1.70
2018-08-13T14:24:45.440Z,1.60
2018-08-13T14:27:14.559Z,2.30
2018-08-13T14:29:43.336Z,1.70
2018-08-13T14:32:12.005Z,2.20
2018-08-13T14:34:40.787Z,1.80
2018-08-13T14:37:09.473Z,2.00
2018-08-13T14:39:40.376Z,1.60
2018-08-13T14:42:09.219Z,2.67
2018-08-13T14:44:38.630Z,2.37
2018-08-13T14:47:07.300Z,2.17
2018-08-13T14:49:36.022Z,2.60
2018-08-13T14:52:04.878Z,2.10
2018-08-13T14:54:33.571Z,2.03
2018-08-13T14:59:37.525Z,2.47
2018-08-13T15:02:06.210Z,2.00
2018-08-13T15:04:34.851Z,2.10
2018-08-13T15:07:03.623Z,2.30
2018-08-13T15:09:32.296Z,2.00
2018-08-13T15:12:00.992Z,3.50
2018-08-13T15:14:29.694Z,2.13
2018-08-13T15:16:58.406Z,3.07
2018-08-13T15:19:27.197Z,1.90
2018-08-13T15:21:55.958Z,2.20
2018-08-13T15:24:24.703Z,2.30
2018-08-13T15:26:53.425Z,2.10
2018-08-13T15:29:22.249Z,2.47
2018-08-13T15:31:50.980Z,3.50
2018-08-13T15:34:19.669Z,3.50
2018-08-13T15:36:48.380Z,3.17
2018-08-13T15:39:17.044Z,4.40
2018-08-13T15:41:45.756Z,4.93
2018-08-13T15:44:14.482Z,5.20
2018-08-13T15:46:43.167Z,5.13
2018-08-13T15:49:11.830Z,5.50
2018-08-13T15:51:40.568Z,5.60
2018-08-13T15:54:09.500Z,5.60
2018-08-13T15:56:38.248Z,5.27
2018-08-13T15:59:06.943Z,5.10
2018-08-13T16:01:35.621Z,4.47
2018-08-13T16:04:04.380Z,4.40
2018-08-13T16:06:33.138Z,4.77
2018-08-13T16:09:02.248Z,5.23
2018-08-13T16:11:30.964Z,4.23
2018-08-13T16:13:59.792Z,5.10
2018-08-13T16:16:28.515Z,5.13
2018-08-13T16:18:57.249Z,5.00
2018-08-13T16:21:25.936Z,4.87
2018-08-13T16:23:54.673Z,4.23
2018-08-13T16:26:23.735Z,4.60
2018-08-13T16:28:52.502Z,4.43
2018-08-13T16:31:21.276Z,3.87
2018-08-13T16:33:50.117Z,4.00
2018-08-13T16:36:18.904Z,4.60
2018-08-13T16:38:47.742Z,4.33
2018-08-13T16:41:16.501Z,3.90
2018-08-13T16:43:45.283Z,4.10
2018-08-13T16:46:14.002Z,4.23
2018-08-13T16:48:42.791Z,4.67
2018-08-13T16:51:11.798Z,4.70
2018-08-13T16:53:40.537Z,5.67
2018-08-13T16:56:09.296Z,5.23
2018-08-13T16:58:38.036Z,5.90
2018-08-13T17:01:06.786Z,5.13
2018-08-13T17:03:35.520Z,6.10
2018-08-13T17:06:04.208Z,6.47
2018-08-13T17:08:32.892Z,5.50
2018-08-13T17:11:01.686Z,6.53
2018-08-13T17:13:30.815Z,7.43
2018-08-13T17:15:59.684Z,7.47
2018-08-13T17:18:28.525Z,7.00
2018-08-13T17:20:57.613Z,7.67
2018-08-13T17:23:26.284Z,8.13
2018-08-13T17:25:55.027Z,39.07
2018-08-13T17:28:26.857Z,9.97
2018-08-13T17:30:57.934Z,8.00
2018-08-13T17:33:29.457Z,9.80
2018-08-13T17:36:00.508Z,42.70
2018-08-13T17:38:30.108Z,66.03
2018-08-13T17:41:02.452Z,27.47
2018-08-13T17:43:34.929Z,14.10
2018-08-13T17:46:05.266Z,14.90
2018-08-13T17:48:35.895Z,11.40
2018-08-13T17:51:06.358Z,11.10
2018-08-13T17:53:38.126Z,9.10
2018-08-13T17:56:08.500Z,7.90
2018-08-13T17:58:38.888Z,6.73
2018-08-13T18:01:08.931Z,6.67
2018-08-13T18:03:39.193Z,7.87
2018-08-13T18:06:09.669Z,8.43
2018-08-13T18:08:39.815Z,8.83
2018-08-13T18:11:10.320Z,7.63
2018-08-13T18:13:40.732Z,7.80
2018-08-13T18:16:12.400Z,7.43
2018-08-13T18:18:42.697Z,68.27
2018-08-13T18:21:13.687Z,25.23
2018-08-13T18:23:44.901Z,40.87
2018-08-13T18:26:15.696Z,46.70
2018-08-13T18:28:46.384Z,42.23
2018-08-13T18:31:18.723Z,110.93
2018-08-13T18:33:49.388Z,83.10
2018-08-13T18:36:20.813Z,165.03
2018-08-13T18:38:53.025Z,51.77
2018-08-13T18:41:23.726Z,37.73
2018-08-13T18:43:53.688Z,22.20
2018-08-13T18:46:23.275Z,16.17
2018-08-13T18:48:54.037Z,13.03
2018-08-13T18:51:25.108Z,9.63
2018-08-13T18:53:56.518Z,10.57
2018-08-13T18:56:26.375Z,8.30
2018-08-13T18:58:55.222Z,8.90
2018-08-13T19:01:23.973Z,7.83
2018-08-13T19:03:53.944Z,8.17
2018-08-13T19:06:22.713Z,7.70
2018-08-13T19:08:51.563Z,8.03
2018-08-13T19:11:20.281Z,54.43
2018-08-13T19:13:49.025Z,65.37
2018-08-13T19:16:17.720Z,15.00
2018-08-13T19:18:46.484Z,51.23
2018-08-13T19:21:15.174Z,30.87
2018-08-13T19:23:43.844Z,90.17
2018-08-13T19:26:12.578Z,23.33
2018-08-13T19:28:41.298Z,30.23
2018-08-13T19:31:10.089Z,14.53
2018-08-13T19:33:38.920Z,11.83
2018-08-13T19:36:07.728Z,9.40
2018-08-13T19:38:36.470Z,11.47
2018-08-13T19:41:05.440Z,11.13
2018-08-13T19:43:34.415Z,10.00
2018-08-13T19:46:03.200Z,9.67
2018-08-13T19:48:32.063Z,8.40
2018-08-13T19:51:00.801Z,8.70
2018-08-13T19:53:29.788Z,8.93
2018-08-13T19:55:58.583Z,8.07
2018-08-13T19:58:27.477Z,9.60
2018-08-13T20:00:56.218Z,8.93
2018-08-13T20:03:24.957Z,8.80
2018-08-13T20:05:53.794Z,7.77
2018-08-13T20:08:22.563Z,8.20
2018-08-13T20:10:51.240Z,8.40
2018-08-13T20:13:19.975Z,7.87
2018-08-13T20:15:48.799Z,6.90
2018-08-13T20:18:17.595Z,6.23
2018-08-13T20:20:46.376Z,6.47
2018-08-13T20:23:15.062Z,7.80
2018-08-13T20:25:43.785Z,7.40
2018-08-13T20:28:12.473Z,6.90
2018-08-13T20:30:41.773Z,6.37
2018-08-13T20:33:10.484Z,6.97
2018-08-13T20:35:39.450Z,5.43
2018-08-13T20:38:08.141Z,5.23
2018-08-13T20:40:37.067Z,5.53
2018-08-13T20:43:06.031Z,5.07
2018-08-13T20:45:34.709Z,5.37
2018-08-13T20:48:03.436Z,4.70
2018-08-13T20:50:32.156Z,4.13
2018-08-13T20:53:00.896Z,4.63
2018-08-13T20:55:30.030Z,3.93
2018-08-13T20:58:00.888Z,4.00
2018-08-13T21:00:30.876Z,4.20
2018-08-13T21:02:59.612Z,3.63
2018-08-13T21:05:28.336Z,3.93
2018-08-13T21:07:57.033Z,3.80
2018-08-13T21:10:26.158Z,3.90
2018-08-13T21:12:55.663Z,3.90
2018-08-13T21:15:24.357Z,4.37
2018-08-13T21:17:53.076Z,4.30
2018-08-13T21:20:25.756Z,4.27
2018-08-13T21:22:54.685Z,3.70
2018-08-13T21:25:23.391Z,4.60
2018-08-13T21:27:52.163Z,4.00
2018-08-13T21:30:20.916Z,3.87
2018-08-13T21:32:49.897Z,4.83
2018-08-13T21:35:20.517Z,3.77
2018-08-13T21:37:49.670Z,3.83
2018-08-13T21:40:18.373Z,3.40
2018-08-13T21:42:47.458Z,4.20
2018-08-13T21:45:16.154Z,4.00
2018-08-13T21:47:44.903Z,4.13
2018-08-13T21:50:19.004Z,4.37
2018-08-13T21:52:48.898Z,3.40
2018-08-13T21:55:17.604Z,4.60
2018-08-13T21:57:46.399Z,3.90
2018-08-13T22:00:29.652Z,3.80
2018-08-13T22:03:01.608Z,3.40
2018-08-13T22:05:30.424Z,3.33
2018-08-13T22:07:59.528Z,3.73
2018-08-13T22:10:28.289Z,3.90
2018-08-13T22:12:57.001Z,3.30
2018-08-13T22:15:28.556Z,3.70
2018-08-13T22:17:58.909Z,4.43
2018-08-13T22:20:28.309Z,4.20
2018-08-13T22:22:58.120Z,4.40
2018-08-13T22:25:31.555Z,3.77
2018-08-13T22:28:00.466Z,3.77
2018-08-13T22:30:30.481Z,4.27
2018-08-13T22:32:59.268Z,4.10
2018-08-13T22:35:27.981Z,4.23
2018-08-13T22:37:56.708Z,4.10
2018-08-13T22:40:25.392Z,4.23
2018-08-13T22:42:54.107Z,4.00
2018-08-13T22:45:23.791Z,3.23
2018-08-13T22:47:52.685Z,3.47
2018-08-13T22:50:21.372Z,3.40
2018-08-13T22:52:50.102Z,3.77
2018-08-13T22:55:19.288Z,3.60
2018-08-13T22:57:48.510Z,4.57
2018-08-13T23:00:18.472Z,4.10
2018-08-13T23:02:48.031Z,3.50
2018-08-13T23:05:20.838Z,3.30
2018-08-13T23:07:49.630Z,4.07
2018-08-13T23:10:19.968Z,3.60
2018-08-13T23:12:49.969Z,3.37
2018-08-13T23:15:18.861Z,3.60
2018-08-13T23:17:47.758Z,3.60
2018-08-13T23:20:19.536Z,4.23
2018-08-13T23:22:56.700Z,3.70
2018-08-13T23:25:25.578Z,3.77
2018-08-13T23:27:55.381Z,3.50
2018-08-13T23:30:24.138Z,3.57
2018-08-13T23:32:53.889Z,3.87
2018-08-13T23:35:23.301Z,3.50
2018-08-13T23:37:52.136Z,3.80
2018-08-13T23:40:20.893Z,4.20
2018-08-13T23:42:49.604Z,3.60
2018-08-13T23:45:20.563Z,3.60
2018-08-13T23:47:49.445Z,4.10
2018-08-13T23:50:19.900Z,3.87
2018-08-13T23:52:49.745Z,3.83
2018-08-13T23:55:25.448Z,3.67
2018-08-13T23:57:54.583Z,4.10
